createdAt,value
2023-02-24T00:02:00.294Z,51.10
2023-02-24T00:04:33.324Z,46.30
2023-02-24T00:07:02.518Z,41.42
2023-02-24T00:09:33.226Z,41.78
2023-02-24T00:12:04.789Z,40.78
2023-02-24T00:14:34.661Z,32.47
2023-02-24T00:17:08.022Z,24.27
2023-02-24T00:19:38.920Z,26.55
2023-02-24T00:22:09.521Z,21.00
2023-02-24T00:24:38.165Z,21.05
2023-02-24T00:27:11.074Z,20.13
2023-02-24T00:29:40.355Z,22.70
2023-02-24T00:32:12.625Z,19.85
2023-02-24T00:34:43.543Z,20.35
2023-02-24T00:37:12.118Z,22.25
2023-02-24T00:39:41.485Z,21.40
2023-02-24T00:42:12.121Z,23.35
2023-02-24T00:44:45.086Z,23.23
2023-02-24T00:47:14.200Z,23.00
2023-02-24T00:49:44.288Z,26.95
2023-02-24T00:52:14.586Z,21.63
2023-02-24T00:54:47.635Z,24.27
2023-02-24T00:57:21.422Z,21.70
2023-02-24T00:59:51.699Z,28.55
2023-02-24T01:02:20.363Z,27.67
2023-02-24T01:04:51.052Z,28.63
2023-02-24T01:07:19.446Z,24.63
2023-02-24T01:09:51.770Z,28.30
2023-02-24T01:12:40.102Z,29.80
2023-02-24T01:15:12.695Z,26.25
2023-02-24T01:17:41.114Z,26.65
2023-02-24T01:20:18.434Z,28.58
2023-02-24T01:22:48.736Z,22.23
2023-02-24T01:25:20.037Z,30.92
2023-02-24T01:27:48.407Z,31.98
2023-02-24T01:30:18.328Z,36.17
2023-02-24T01:32:48.088Z,31.67
2023-02-24T01:35:18.681Z,28.05
2023-02-24T01:37:46.896Z,31.10
2023-02-24T01:40:21.489Z,37.20
2023-02-24T01:42:50.602Z,36.83
2023-02-24T01:45:29.646Z,27.92
2023-02-24T01:48:01.686Z,30.48
2023-02-24T01:50:34.132Z,33.38
2023-02-24T01:53:05.779Z,26.17
2023-02-24T01:55:36.902Z,31.00
2023-02-24T01:58:09.701Z,29.85
2023-02-24T02:00:38.916Z,27.65
2023-02-24T02:03:15.428Z,26.02
2023-02-24T02:05:48.746Z,29.05
2023-02-24T02:08:19.578Z,23.67
2023-02-24T02:10:48.830Z,26.30
2023-02-24T02:13:24.024Z,23.83
2023-02-24T02:16:02.867Z,28.13
2023-02-24T02:18:42.945Z,24.30
2023-02-24T02:21:56.289Z,25.75
2023-02-24T02:24:35.775Z,21.52
2023-02-24T02:27:30.049Z,22.85
2023-02-24T02:30:28.794Z,21.95
2023-02-24T02:33:33.752Z,19.05
2023-02-24T02:36:14.296Z,19.80
2023-02-24T02:38:52.724Z,21.30
2023-02-24T02:41:28.517Z,29.33
2023-02-24T02:44:07.447Z,21.10
2023-02-24T02:46:42.334Z,17.00
2023-02-24T02:49:19.042Z,21.92
2023-02-24T02:51:52.748Z,22.52
2023-02-24T02:54:28.273Z,27.60
2023-02-24T02:57:03.811Z,20.17
2023-02-24T02:59:35.346Z,24.67
2023-02-24T03:02:14.940Z,23.08
2023-02-24T03:04:51.643Z,24.08
2023-02-24T03:07:31.076Z,31.88
2023-02-24T03:10:04.401Z,27.05
2023-02-24T03:12:37.283Z,30.10
2023-02-24T03:15:11.700Z,33.42
2023-02-24T03:17:45.359Z,31.20
2023-02-24T03:20:22.002Z,26.67
2023-02-24T03:22:57.752Z,31.20
2023-02-24T03:25:30.181Z,34.55
2023-02-24T03:28:05.795Z,28.42
2023-02-24T03:30:41.801Z,33.15
2023-02-24T03:33:16.721Z,32.92
2023-02-24T03:35:46.416Z,29.75
2023-02-24T03:38:19.674Z,32.15
2023-02-24T03:40:48.273Z,31.75
2023-02-24T03:43:27.897Z,33.97
2023-02-24T03:45:57.923Z,31.10
2023-02-24T03:48:27.944Z,31.70
2023-02-24T03:51:00.512Z,35.45
2023-02-24T03:54:01.449Z,35.08
2023-02-24T03:56:40.933Z,35.00
2023-02-24T03:59:23.744Z,38.35
2023-02-24T04:01:58.009Z,31.20
2023-02-24T04:04:37.183Z,35.85
2023-02-24T04:07:19.081Z,34.42
2023-02-24T04:09:59.254Z,39.33
2023-02-24T04:12:31.399Z,32.75
2023-02-24T04:15:10.375Z,38.13
2023-02-24T04:17:44.719Z,31.35
2023-02-24T04:20:18.884Z,34.05
2023-02-24T04:22:54.956Z,40.17
2023-02-24T04:25:27.559Z,30.50
2023-02-24T04:28:00.647Z,30.73
2023-02-24T04:30:35.214Z,25.85
2023-02-24T04:33:04.441Z,22.30
2023-02-24T04:35:33.065Z,23.83
2023-02-24T04:38:02.219Z,27.50
2023-02-24T04:40:33.038Z,21.98
2023-02-24T04:43:01.315Z,23.48
2023-02-24T04:45:31.779Z,24.20
2023-02-24T04:48:02.215Z,31.15
2023-02-24T04:50:33.346Z,32.38
2023-02-24T04:53:08.789Z,29.30
2023-02-24T04:55:40.897Z,37.38
2023-02-24T04:58:12.177Z,35.55
2023-02-24T05:00:41.935Z,32.67
2023-02-24T05:03:13.699Z,35.33
2023-02-24T05:05:51.822Z,33.42
2023-02-24T05:08:22.054Z,28.65
2023-02-24T05:10:52.370Z,27.73
2023-02-24T05:13:26.225Z,38.95
2023-02-24T05:15:56.030Z,32.10
2023-02-24T05:18:24.923Z,25.92
2023-02-24T05:21:12.481Z,32.05
2023-02-24T05:23:44.297Z,30.75
2023-02-24T05:26:16.808Z,29.25
2023-02-24T05:28:49.046Z,31.63
2023-02-24T05:31:19.879Z,35.85
2023-02-24T05:33:50.483Z,45.03
2023-02-24T05:36:20.141Z,38.50
2023-02-24T05:38:56.542Z,46.28
2023-02-24T05:41:32.517Z,41.20
2023-02-24T05:44:04.715Z,34.10
2023-02-24T05:46:34.877Z,35.80
2023-02-24T05:49:08.635Z,28.52
2023-02-24T05:51:39.088Z,28.52
2023-02-24T05:54:09.536Z,18.55
2023-02-24T05:56:45.135Z,19.65
2023-02-24T05:59:18.258Z,24.50
2023-02-24T06:01:46.646Z,23.00
2023-02-24T06:04:27.840Z,23.08
2023-02-24T06:06:56.140Z,19.88
2023-02-24T06:09:24.310Z,19.30
2023-02-24T06:11:53.911Z,21.48
2023-02-24T06:14:22.727Z,22.00
2023-02-24T06:16:51.022Z,17.25
2023-02-24T06:19:20.641Z,23.20
2023-02-24T06:21:49.170Z,18.83
2023-02-24T06:24:18.565Z,17.67
2023-02-24T06:26:46.949Z,20.38
2023-02-24T06:29:18.243Z,18.13
2023-02-24T06:31:48.639Z,23.92
2023-02-24T06:34:18.371Z,19.20
2023-02-24T06:36:47.005Z,16.40
2023-02-24T06:39:16.973Z,17.33
2023-02-24T06:41:52.849Z,16.23
2023-02-24T06:44:24.298Z,21.10
2023-02-24T06:46:52.624Z,24.17
2023-02-24T06:49:21.289Z,19.02
2023-02-24T06:51:50.306Z,15.40
2023-02-24T06:54:19.110Z,19.45
2023-02-24T06:56:47.832Z,17.88
2023-02-24T06:59:21.846Z,17.42
2023-02-24T07:01:53.915Z,20.10
2023-02-24T07:04:28.247Z,22.58
2023-02-24T07:07:03.230Z,18.58
2023-02-24T07:09:33.232Z,20.95
2023-02-24T07:12:02.960Z,19.67
2023-02-24T07:14:32.040Z,19.33
2023-02-24T07:17:01.921Z,19.75
2023-02-24T07:19:32.554Z,15.98
2023-02-24T07:22:03.492Z,15.48
2023-02-24T07:24:37.155Z,16.02
2023-02-24T07:27:07.191Z,17.77
2023-02-24T07:29:37.684Z,19.80
2023-02-24T07:32:09.673Z,27.98
2023-02-24T07:34:40.101Z,33.33
2023-02-24T07:37:09.552Z,30.48
2023-02-24T07:39:43.026Z,28.10
2023-02-24T07:42:13.780Z,37.92
2023-02-24T07:44:48.992Z,47.10
2023-02-24T07:47:19.175Z,43.20
2023-02-24T07:49:51.202Z,47.15
2023-02-24T07:52:19.540Z,24.67
2023-02-24T07:54:50.683Z,16.25
2023-02-24T07:57:19.061Z,12.85
2023-02-24T07:59:50.081Z,13.20
2023-02-24T08:02:19.691Z,13.95
2023-02-24T08:04:51.517Z,14.00
2023-02-24T08:07:25.667Z,14.45
2023-02-24T08:10:24.216Z,14.70
2023-02-24T08:12:55.630Z,17.65
2023-02-24T08:15:25.035Z,16.15
2023-02-24T08:18:02.466Z,16.05
2023-02-24T08:20:51.300Z,13.18
2023-02-24T08:23:19.731Z,20.15
2023-02-24T08:25:47.956Z,17.52
2023-02-24T08:28:16.300Z,20.42
2023-02-24T08:30:46.499Z,14.20
2023-02-24T08:33:21.195Z,17.10
2023-02-24T08:35:57.913Z,22.88
2023-02-24T08:38:28.429Z,18.10
2023-02-24T08:40:59.290Z,17.15
2023-02-24T08:43:33.406Z,21.98
2023-02-24T08:46:18.360Z,24.92
2023-02-24T08:48:49.977Z,24.52
2023-02-24T08:51:22.821Z,27.25
2023-02-24T08:53:53.717Z,17.23
2023-02-24T08:56:27.577Z,20.15
2023-02-24T08:58:58.490Z,22.13
2023-02-24T09:01:34.639Z,34.28
2023-02-24T09:04:07.502Z,39.03
2023-02-24T09:06:39.734Z,29.25
2023-02-24T09:09:22.464Z,29.05
2023-02-24T09:11:56.090Z,30.20
2023-02-24T09:14:28.753Z,27.98
2023-02-24T09:17:06.180Z,31.63
2023-02-24T09:19:58.017Z,29.08
2023-02-24T09:22:40.865Z,29.92
2023-02-24T09:25:23.949Z,21.20
2023-02-24T09:27:55.750Z,20.75
2023-02-24T09:30:39.287Z,26.42
2023-02-24T09:33:21.133Z,23.30
2023-02-24T09:36:10.759Z,24.23
2023-02-24T09:38:58.338Z,25.70
2023-02-24T09:41:34.065Z,31.38
2023-02-24T09:44:07.843Z,22.88
2023-02-24T09:46:42.315Z,21.27
2023-02-24T09:49:18.014Z,21.92
2023-02-24T09:51:56.735Z,25.02
2023-02-24T09:54:31.788Z,20.10
2023-02-24T09:57:09.252Z,17.35
2023-02-24T10:00:00.893Z,9.82
2023-02-24T10:02:44.333Z,16.83
2023-02-24T10:05:27.264Z,20.77
2023-02-24T10:07:59.214Z,17.90
2023-02-24T10:10:38.856Z,18.77
2023-02-24T10:13:15.321Z,19.58
2023-02-24T10:15:58.993Z,20.92
2023-02-24T10:18:34.110Z,12.32
2023-02-24T10:21:18.164Z,19.27
2023-02-24T10:24:01.780Z,20.17
2023-02-24T10:26:51.298Z,16.65
2023-02-24T10:29:34.531Z,17.85
2023-02-24T10:32:23.475Z,25.45
2023-02-24T10:34:54.782Z,18.05
2023-02-24T10:37:29.501Z,15.50
2023-02-24T10:40:09.777Z,19.70
2023-02-24T10:42:45.760Z,18.88
2023-02-24T10:45:18.287Z,20.80
2023-02-24T10:47:56.675Z,14.68
2023-02-24T10:50:29.781Z,22.77
2023-02-24T10:53:26.512Z,13.70
2023-02-24T10:56:23.422Z,26.10
2023-02-24T10:59:20.562Z,17.55
2023-02-24T11:01:59.210Z,18.80
2023-02-24T11:04:53.830Z,22.15
2023-02-24T11:07:33.357Z,17.45
2023-02-24T11:10:12.081Z,15.82
2023-02-24T11:13:10.660Z,19.05
2023-02-24T11:16:00.874Z,19.33
2023-02-24T11:18:31.071Z,22.70
2023-02-24T11:21:02.136Z,21.90
2023-02-24T11:23:35.657Z,22.55
2023-02-24T11:26:08.264Z,18.58
2023-02-24T11:28:59.519Z,28.17
2023-02-24T11:31:45.933Z,28.38
2023-02-24T11:34:24.585Z,31.25
2023-02-24T11:37:02.728Z,38.10
2023-02-24T11:39:53.530Z,19.40
2023-02-24T11:42:28.047Z,16.77
2023-02-24T11:45:06.577Z,15.13
2023-02-24T11:47:39.881Z,19.92
2023-02-24T11:50:24.895Z,17.58
2023-02-24T11:52:55.405Z,16.02
2023-02-24T11:55:34.999Z,17.08
2023-02-24T11:58:08.492Z,17.15
2023-02-24T12:00:43.164Z,14.43
2023-02-24T12:03:19.290Z,15.73
2023-02-24T12:05:53.746Z,17.38
2023-02-24T12:08:29.263Z,15.95
2023-02-24T12:11:07.025Z,11.95
2023-02-24T12:13:41.269Z,21.17
2023-02-24T12:16:18.459Z,13.93
2023-02-24T12:18:51.458Z,11.32
2023-02-24T12:21:25.158Z,6.55
2023-02-24T12:23:54.636Z,12.48
2023-02-24T12:26:27.249Z,16.27
2023-02-24T12:29:30.139Z,12.75
2023-02-24T12:32:10.790Z,7.65
2023-02-24T12:34:49.958Z,13.38
2023-02-24T12:37:30.824Z,13.32
2023-02-24T12:40:13.737Z,11.52
2023-02-24T12:42:52.545Z,12.57
2023-02-24T12:45:27.660Z,19.75
2023-02-24T12:48:08.045Z,20.00
2023-02-24T12:50:46.805Z,17.27
2023-02-24T12:53:21.618Z,20.67
2023-02-24T12:55:59.177Z,12.40
2023-02-24T12:58:30.144Z,23.40
2023-02-24T13:01:10.318Z,10.70
2023-02-24T13:03:58.905Z,9.55
2023-02-24T13:06:35.338Z,17.15
2023-02-24T13:09:12.552Z,16.40
2023-02-24T13:11:47.187Z,10.20
2023-02-24T13:14:22.264Z,16.95
2023-02-24T13:16:51.517Z,13.52
2023-02-24T13:19:29.016Z,8.50
2023-02-24T13:22:01.928Z,14.93
2023-02-24T13:24:30.550Z,17.15
2023-02-24T13:27:20.368Z,15.82
2023-02-24T13:29:50.845Z,20.50
2023-02-24T13:32:29.587Z,12.20
2023-02-24T13:35:01.196Z,16.92
2023-02-24T13:37:32.245Z,17.00
2023-02-24T13:40:00.436Z,14.30
2023-02-24T13:42:30.587Z,14.10
2023-02-24T13:45:06.267Z,14.02
2023-02-24T13:48:13.058Z,16.67
2023-02-24T13:51:11.432Z,11.13
2023-02-24T13:53:58.782Z,13.30
2023-02-24T13:56:39.225Z,13.10
2023-02-24T13:59:21.798Z,13.55
2023-02-24T14:01:52.514Z,11.13
2023-02-24T14:04:27.841Z,12.48
2023-02-24T14:07:03.153Z,13.75
2023-02-24T14:09:35.057Z,16.38
2023-02-24T14:12:08.277Z,19.45
2023-02-24T14:14:36.797Z,15.85
2023-02-24T14:17:09.571Z,14.68
2023-02-24T14:19:37.798Z,17.25
2023-02-24T14:22:07.390Z,13.70
2023-02-24T14:24:35.548Z,16.60
2023-02-24T14:27:05.471Z,14.52
2023-02-24T14:29:44.067Z,17.88
2023-02-24T14:32:22.099Z,14.98
2023-02-24T14:34:50.803Z,12.82
2023-02-24T14:37:25.955Z,14.40
2023-02-24T14:39:56.756Z,15.23
2023-02-24T14:42:25.647Z,13.30
2023-02-24T14:44:55.966Z,12.98
2023-02-24T14:47:26.025Z,13.10
2023-02-24T14:49:56.900Z,10.05
2023-02-24T14:52:33.182Z,18.33
2023-02-24T14:55:06.378Z,15.88
2023-02-24T14:57:39.637Z,13.77
2023-02-24T15:00:17.355Z,14.25
2023-02-24T15:02:51.623Z,13.68
2023-02-24T15:05:20.192Z,13.32
2023-02-24T15:07:51.786Z,14.63
2023-02-24T15:10:26.402Z,18.70
2023-02-24T15:13:00.719Z,20.35
2023-02-24T15:15:34.157Z,15.88
2023-02-24T15:18:10.476Z,15.98
2023-02-24T15:20:41.985Z,19.85
2023-02-24T15:23:27.242Z,22.10
2023-02-24T15:25:55.592Z,20.35
2023-02-24T15:28:26.766Z,17.08
2023-02-24T15:31:02.812Z,24.42
2023-02-24T15:33:36.308Z,24.08
2023-02-24T15:36:11.209Z,17.05
2023-02-24T15:38:43.763Z,16.55
2023-02-24T15:41:13.498Z,13.57
2023-02-24T15:43:47.756Z,17.25
2023-02-24T15:46:25.175Z,14.82
2023-02-24T15:48:55.547Z,11.60
2023-02-24T15:51:34.966Z,13.68
2023-02-24T15:54:06.998Z,10.00
2023-02-24T15:56:36.491Z,10.27
2023-02-24T15:59:06.000Z,9.75
2023-02-24T16:01:34.929Z,11.75
2023-02-24T16:04:04.669Z,16.77
2023-02-24T16:06:33.959Z,8.50
2023-02-24T16:09:05.234Z,14.88
2023-02-24T16:11:42.050Z,10.90
2023-02-24T16:14:13.980Z,11.80
2023-02-24T16:16:42.419Z,12.73
2023-02-24T16:19:14.546Z,11.05
2023-02-24T16:21:42.997Z,10.38
2023-02-24T16:24:12.250Z,11.45
2023-02-24T16:26:44.191Z,16.67
2023-02-24T16:29:16.309Z,9.98
2023-02-24T16:31:44.765Z,20.33
2023-02-24T16:34:16.542Z,32.03
2023-02-24T16:36:44.961Z,29.38
2023-02-24T16:39:14.939Z,16.10
2023-02-24T16:41:44.602Z,17.40
2023-02-24T16:44:14.210Z,19.08
2023-02-24T16:46:46.166Z,34.38
2023-02-24T16:49:19.486Z,21.17
2023-02-24T16:51:50.477Z,22.88
2023-02-24T16:54:21.820Z,17.05
2023-02-24T16:56:52.691Z,32.80
2023-02-24T16:59:21.169Z,31.90
2023-02-24T17:01:49.606Z,117.85
2023-02-24T17:04:18.114Z,94.57
2023-02-24T17:06:46.438Z,76.18
2023-02-24T17:09:15.654Z,90.68
2023-02-24T17:11:44.508Z,84.05
2023-02-24T17:14:17.164Z,99.75
2023-02-24T17:16:48.418Z,75.00
2023-02-24T17:19:17.744Z,58.63
2023-02-24T17:21:46.953Z,72.10
2023-02-24T17:24:17.470Z,63.95
2023-02-24T17:26:48.766Z,57.50
2023-02-24T17:29:20.325Z,47.75
2023-02-24T17:31:48.662Z,46.92
2023-02-24T17:34:16.962Z,47.28
2023-02-24T17:36:47.223Z,39.72
2023-02-24T17:39:15.529Z,42.55
2023-02-24T17:41:43.682Z,35.97
2023-02-24T17:44:11.867Z,39.92
2023-02-24T17:46:41.494Z,37.72
2023-02-24T17:49:10.059Z,35.15
2023-02-24T17:51:38.244Z,32.38
2023-02-24T17:54:06.789Z,25.38
2023-02-24T17:56:35.110Z,26.15
2023-02-24T17:59:03.287Z,25.25
2023-02-24T18:01:31.595Z,22.02
2023-02-24T18:04:01.244Z,19.40
2023-02-24T18:06:29.564Z,21.98
2023-02-24T18:08:57.734Z,38.03
2023-02-24T18:11:25.954Z,33.63
2023-02-24T18:13:55.197Z,37.08
2023-02-24T18:16:23.886Z,30.27
2023-02-24T18:18:52.821Z,24.50
2023-02-24T18:21:24.024Z,39.80
2023-02-24T18:23:55.026Z,27.60
2023-02-24T18:26:25.582Z,38.65
2023-02-24T18:28:54.438Z,49.22
2023-02-24T18:31:25.377Z,40.35
2023-02-24T18:33:54.083Z,40.88
2023-02-24T18:36:24.306Z,36.80
2023-02-24T18:38:54.988Z,29.13
2023-02-24T18:41:24.369Z,20.90
2023-02-24T18:43:54.468Z,16.33
2023-02-24T18:46:29.425Z,15.52
2023-02-24T18:49:00.824Z,18.27
2023-02-24T18:51:30.718Z,14.88
2023-02-24T18:54:04.626Z,16.73
2023-02-24T18:56:35.669Z,16.85
2023-02-24T18:59:07.624Z,17.00
2023-02-24T19:01:39.603Z,14.43
2023-02-24T19:04:10.818Z,13.20
2023-02-24T19:06:41.525Z,15.00
2023-02-24T19:09:12.244Z,14.50
2023-02-24T19:11:43.611Z,18.35
2023-02-24T19:14:13.876Z,17.70
2023-02-24T19:16:42.845Z,19.42
2023-02-24T19:19:15.130Z,18.45
2023-02-24T19:21:45.898Z,15.80
2023-02-24T19:24:16.421Z,24.48
2023-02-24T19:26:47.386Z,25.48
2023-02-24T19:29:16.311Z,24.55
2023-02-24T19:31:45.733Z,26.52
2023-02-24T19:34:15.737Z,19.80
2023-02-24T19:36:45.306Z,19.95
2023-02-24T19:39:15.394Z,15.40
2023-02-24T19:41:43.623Z,14.63
2023-02-24T19:44:12.052Z,16.02
2023-02-24T19:46:41.461Z,14.00
2023-02-24T19:49:09.658Z,12.50
2023-02-24T19:51:38.174Z,12.63
2023-02-24T19:54:08.823Z,20.25
2023-02-24T19:56:37.755Z,17.30
2023-02-24T19:59:11.203Z,28.33
2023-02-24T20:01:39.469Z,20.30
2023-02-24T20:04:08.433Z,16.30
2023-02-24T20:06:38.255Z,11.27
2023-02-24T20:09:09.835Z,13.10
2023-02-24T20:11:40.530Z,12.25
2023-02-24T20:14:10.418Z,16.48
2023-02-24T20:16:38.963Z,13.70
2023-02-24T20:19:09.363Z,16.13
2023-02-24T20:21:38.510Z,19.27
2023-02-24T20:24:13.230Z,14.48
2023-02-24T20:26:50.067Z,13.95
2023-02-24T20:29:20.623Z,21.30
2023-02-24T20:31:49.781Z,20.33
2023-02-24T20:34:18.196Z,18.30
2023-02-24T20:36:54.054Z,20.35
2023-02-24T20:39:25.179Z,21.00
2023-02-24T20:41:55.800Z,16.58
2023-02-24T20:44:24.610Z,36.83
2023-02-24T20:46:52.910Z,39.13
2023-02-24T20:49:21.216Z,31.38
2023-02-24T20:51:49.703Z,20.70
2023-02-24T20:54:18.254Z,20.58
2023-02-24T20:56:48.540Z,20.73
2023-02-24T20:59:19.117Z,17.58
2023-02-24T21:01:48.970Z,20.05
2023-02-24T21:04:20.118Z,14.40
2023-02-24T21:06:48.956Z,12.82
2023-02-24T21:09:17.525Z,10.40
2023-02-24T21:11:47.178Z,14.52
2023-02-24T21:14:16.898Z,13.95
2023-02-24T21:16:46.817Z,69.80
2023-02-24T21:19:15.122Z,41.03
2023-02-24T21:21:43.311Z,38.60
2023-02-24T21:24:11.561Z,60.38
2023-02-24T21:26:39.750Z,40.65
2023-02-24T21:29:09.530Z,37.63
2023-02-24T21:31:37.942Z,49.83
2023-02-24T21:34:06.896Z,43.83
2023-02-24T21:36:35.073Z,39.45
2023-02-24T21:39:05.153Z,51.03
2023-02-24T21:41:35.552Z,22.98
2023-02-24T21:44:03.882Z,30.23
2023-02-24T21:46:33.501Z,15.95
2023-02-24T21:49:01.884Z,24.15
2023-02-24T21:51:30.405Z,15.18
2023-02-24T21:53:58.951Z,14.63
2023-02-24T21:56:29.150Z,14.48
2023-02-24T21:59:02.111Z,16.45
2023-02-24T22:01:36.567Z,19.55
2023-02-24T22:04:07.831Z,14.90
2023-02-24T22:06:37.950Z,15.55
2023-02-24T22:09:08.078Z,13.70
2023-02-24T22:11:38.077Z,15.60
2023-02-24T22:14:09.274Z,49.88
2023-02-24T22:16:39.497Z,22.15
2023-02-24T22:19:08.359Z,32.35
2023-02-24T22:21:39.557Z,13.88
2023-02-24T22:24:09.299Z,14.23
2023-02-24T22:26:37.606Z,14.30
2023-02-24T22:29:08.930Z,13.25
2023-02-24T22:31:39.543Z,18.45
2023-02-24T22:34:08.812Z,18.98
2023-02-24T22:36:37.768Z,13.13
2023-02-24T22:39:07.195Z,21.35
2023-02-24T22:41:38.163Z,22.27
2023-02-24T22:44:07.285Z,22.40
2023-02-24T22:46:40.198Z,12.43
2023-02-24T22:49:08.471Z,9.85
2023-02-24T22:51:37.048Z,8.77
2023-02-24T22:54:09.038Z,14.93
2023-02-24T22:56:37.844Z,9.77
2023-02-24T22:59:06.078Z,13.30
2023-02-24T23:01:36.334Z,10.77
2023-02-24T23:04:09.181Z,11.82
2023-02-24T23:06:37.796Z,13.52
2023-02-24T23:09:07.541Z,14.77
2023-02-24T23:11:38.616Z,14.07
2023-02-24T23:14:09.919Z,14.40
2023-02-24T23:16:39.196Z,15.43
2023-02-24T23:19:12.879Z,14.10
2023-02-24T23:21:43.007Z,12.73
2023-02-24T23:24:13.844Z,11.98
2023-02-24T23:26:45.644Z,14.73
2023-02-24T23:29:15.968Z,13.50
2023-02-24T23:31:45.714Z,12.07
2023-02-24T23:34:15.973Z,8.05
2023-02-24T23:36:47.846Z,9.60
2023-02-24T23:39:20.373Z,5.00
2023-02-24T23:41:49.436Z,5.53
2023-02-24T23:44:17.706Z,9.40
2023-02-24T23:46:46.591Z,10.30
2023-02-24T23:49:16.214Z,10.15
2023-02-24T23:51:48.990Z,7.88
2023-02-24T23:54:17.958Z,6.63
2023-02-24T23:56:49.722Z,8.43
2023-02-24T23:59:17.920Z,9.13
